createdAt,value
2022-10-15T00:01:14.718Z,1.52
2022-10-15T00:04:22.081Z,1.20
2022-10-15T00:07:26.653Z,0.60
2022-10-15T00:10:57.204Z,1.55
2022-10-15T00:14:08.181Z,1.25
2022-10-15T00:17:12.061Z,0.98
2022-10-15T00:20:14.918Z,1.10
2022-10-15T00:23:16.887Z,0.70
2022-10-15T00:26:24.194Z,1.00
2022-10-15T00:29:26.172Z,0.80
2022-10-15T00:32:31.146Z,1.67
2022-10-15T00:35:32.741Z,0.80
2022-10-15T00:38:35.499Z,1.08
2022-10-15T00:41:42.924Z,1.65
2022-10-15T00:44:56.895Z,0.95
2022-10-15T00:47:58.542Z,1.02
2022-10-15T00:51:03.690Z,1.08
2022-10-15T00:54:06.251Z,0.98
2022-10-15T00:57:10.699Z,1.38
2022-10-15T01:00:17.798Z,2.42
2022-10-15T01:03:23.389Z,0.65
2022-10-15T01:06:26.946Z,0.73
2022-10-15T01:09:28.613Z,1.63
2022-10-15T01:12:57.234Z,1.17
2022-10-15T01:16:17.139Z,1.08
2022-10-15T01:19:37.539Z,0.98
2022-10-15T01:22:42.727Z,1.17
2022-10-15T01:26:22.415Z,1.55
2022-10-15T01:29:55.288Z,1.15
2022-10-15T01:32:57.181Z,0.77
2022-10-15T01:36:21.601Z,0.80
2022-10-15T01:39:31.949Z,1.05
2022-10-15T01:42:46.109Z,0.82
2022-10-15T01:45:54.821Z,0.90
2022-10-15T01:49:28.086Z,1.73
2022-10-15T01:52:34.681Z,1.95
2022-10-15T01:55:42.389Z,2.58
2022-10-15T01:58:47.014Z,1.13
2022-10-15T02:01:49.127Z,1.20
2022-10-15T02:04:51.274Z,1.40
2022-10-15T02:08:04.265Z,1.85
2022-10-15T02:11:15.454Z,1.42
2022-10-15T02:14:37.049Z,2.30
2022-10-15T02:18:00.540Z,0.95
2022-10-15T02:21:30.842Z,3.17
2022-10-15T02:24:57.816Z,1.98
2022-10-15T02:28:03.530Z,1.73
2022-10-15T02:31:07.548Z,1.98
2022-10-15T02:34:13.157Z,2.17
2022-10-15T02:37:17.926Z,1.92
2022-10-15T02:40:27.356Z,0.98
2022-10-15T02:43:30.530Z,1.63
2022-10-15T02:46:32.435Z,3.22
2022-10-15T02:49:34.208Z,1.83
2022-10-15T02:52:38.081Z,2.33
2022-10-15T02:55:39.837Z,1.73
2022-10-15T02:58:41.706Z,2.92
2022-10-15T03:01:43.585Z,2.22
2022-10-15T03:04:45.387Z,2.15
2022-10-15T03:07:47.038Z,1.42
2022-10-15T03:10:49.642Z,1.63
2022-10-15T03:13:51.439Z,1.88
2022-10-15T03:16:53.445Z,2.45
2022-10-15T03:19:55.272Z,1.80
2022-10-15T03:22:59.886Z,1.33
2022-10-15T03:26:01.943Z,2.55
2022-10-15T03:29:04.199Z,2.58
2022-10-15T03:32:13.682Z,2.35
2022-10-15T03:35:15.933Z,1.80
2022-10-15T03:38:17.696Z,2.33
2022-10-15T03:41:19.617Z,1.75
2022-10-15T03:44:23.416Z,1.80
2022-10-15T03:47:36.645Z,1.50
2022-10-15T03:50:38.554Z,1.27
2022-10-15T03:53:40.271Z,1.65
2022-10-15T03:56:42.028Z,6.68
2022-10-15T03:59:59.563Z,1.42
2022-10-15T04:03:03.404Z,1.63
2022-10-15T04:06:05.431Z,1.00
2022-10-15T04:09:07.454Z,1.90
2022-10-15T04:12:09.206Z,3.75
2022-10-15T04:15:11.453Z,2.58
2022-10-15T04:18:22.376Z,1.73
2022-10-15T04:21:28.327Z,3.05
2022-10-15T04:24:34.787Z,2.38
2022-10-15T04:27:37.104Z,4.13
2022-10-15T04:30:45.224Z,2.03
2022-10-15T04:33:49.234Z,2.85
2022-10-15T04:36:51.390Z,1.98
2022-10-15T04:39:56.034Z,1.63
2022-10-15T04:42:57.775Z,1.80
2022-10-15T04:46:01.352Z,2.45
2022-10-15T04:49:03.145Z,1.15
2022-10-15T04:52:05.033Z,1.83
2022-10-15T04:55:17.370Z,1.10
2022-10-15T04:58:19.163Z,1.67
2022-10-15T05:01:21.804Z,1.98
2022-10-15T05:04:34.006Z,1.50
2022-10-15T05:07:35.683Z,3.72
2022-10-15T05:10:37.497Z,1.65
2022-10-15T05:13:42.578Z,1.02
2022-10-15T05:16:44.373Z,2.40
2022-10-15T05:19:47.326Z,0.90
2022-10-15T05:22:53.376Z,1.73
2022-10-15T05:25:59.716Z,1.92
2022-10-15T05:29:01.511Z,3.13
2022-10-15T05:32:06.484Z,1.95
2022-10-15T05:35:08.988Z,1.58
2022-10-15T05:38:26.640Z,0.95
2022-10-15T05:41:29.975Z,3.00
2022-10-15T05:44:31.709Z,1.95
2022-10-15T05:47:34.493Z,1.35
2022-10-15T05:50:51.785Z,2.50
2022-10-15T05:53:59.498Z,1.35
2022-10-15T05:57:01.949Z,2.10
2022-10-15T06:00:06.280Z,1.35
2022-10-15T06:03:14.629Z,1.30
2022-10-15T06:06:22.496Z,2.55
2022-10-15T06:09:24.514Z,1.50
2022-10-15T06:12:26.156Z,1.80
2022-10-15T06:15:27.829Z,0.80
2022-10-15T06:18:29.644Z,1.58
2022-10-15T06:21:32.433Z,0.88
2022-10-15T06:24:34.205Z,1.42
2022-10-15T06:27:36.420Z,0.77
2022-10-15T06:30:38.065Z,0.90
2022-10-15T06:33:39.727Z,0.98
2022-10-15T06:36:42.118Z,0.77
2022-10-15T06:39:43.773Z,0.70
2022-10-15T06:42:45.482Z,1.33
2022-10-15T06:45:47.200Z,3.47
2022-10-15T06:48:51.932Z,3.70
2022-10-15T06:51:53.555Z,1.10
2022-10-15T06:54:55.186Z,1.10
2022-10-15T06:57:57.187Z,2.83
2022-10-15T07:01:05.701Z,1.83
2022-10-15T07:07:20.567Z,0.85
2022-10-15T07:10:23.891Z,1.08
2022-10-15T07:13:25.652Z,1.73
2022-10-15T07:16:27.418Z,1.70
2022-10-15T07:19:29.142Z,2.67
2022-10-15T07:22:31.027Z,1.42
2022-10-15T07:25:32.834Z,1.60
2022-10-15T07:28:34.507Z,1.42
2022-10-15T07:31:36.325Z,1.40
2022-10-15T07:34:38.027Z,2.85
2022-10-15T07:37:39.716Z,2.38
2022-10-15T07:40:41.387Z,2.97
2022-10-15T07:43:43.703Z,4.43
2022-10-15T07:46:47.421Z,2.08
2022-10-15T07:49:49.032Z,6.95
2022-10-15T07:52:50.650Z,3.38
2022-10-15T07:55:52.495Z,1.67
2022-10-15T07:58:54.227Z,1.48
2022-10-15T08:01:55.878Z,1.98
2022-10-15T08:04:57.544Z,1.83
2022-10-15T08:07:59.196Z,1.50
2022-10-15T08:11:06.982Z,3.97
2022-10-15T08:14:08.722Z,2.85
2022-10-15T08:17:10.715Z,3.10
2022-10-15T08:20:12.572Z,3.30
2022-10-15T08:23:16.286Z,2.70
2022-10-15T08:26:18.329Z,4.05
2022-10-15T08:29:19.954Z,3.30
2022-10-15T08:32:21.800Z,3.58
2022-10-15T08:35:23.797Z,2.95
2022-10-15T08:38:25.701Z,2.47
2022-10-15T08:41:54.996Z,3.85
2022-10-15T08:44:59.626Z,4.85
2022-10-15T08:48:14.991Z,4.60
2022-10-15T08:51:16.548Z,5.28
2022-10-15T08:54:19.330Z,3.47
2022-10-15T08:57:30.311Z,4.40
2022-10-15T09:00:47.099Z,3.83
2022-10-15T09:04:30.542Z,3.53
2022-10-15T09:07:54.417Z,3.10
2022-10-15T09:11:18.080Z,4.57
2022-10-15T09:14:25.584Z,5.18
2022-10-15T09:17:32.133Z,3.25
2022-10-15T09:20:36.897Z,5.22
2022-10-15T09:23:39.056Z,2.47
2022-10-15T09:26:47.141Z,3.00
2022-10-15T09:30:04.194Z,3.92
2022-10-15T09:33:31.881Z,2.83
2022-10-15T09:36:39.980Z,4.68
2022-10-15T09:40:03.071Z,5.13
2022-10-15T09:43:10.494Z,3.72
2022-10-15T09:46:12.783Z,3.23
2022-10-15T09:49:23.792Z,4.93
2022-10-15T09:52:39.888Z,5.13
2022-10-15T09:55:52.122Z,4.07
2022-10-15T09:58:59.729Z,3.75
2022-10-15T10:02:05.161Z,5.50
2022-10-15T10:05:19.235Z,4.00
2022-10-15T10:08:24.743Z,4.55
2022-10-15T10:11:27.882Z,4.82
2022-10-15T10:14:36.411Z,5.10
2022-10-15T10:17:38.316Z,3.53
2022-10-15T10:20:53.979Z,4.82
2022-10-15T10:23:57.871Z,4.10
2022-10-15T10:27:01.039Z,4.50
2022-10-15T10:30:06.931Z,4.05
2022-10-15T10:33:15.116Z,4.15
2022-10-15T10:36:34.533Z,3.33
2022-10-15T10:39:42.326Z,4.40
2022-10-15T10:42:45.065Z,3.40
2022-10-15T10:45:57.973Z,3.05
2022-10-15T10:48:59.611Z,3.28
2022-10-15T10:52:01.420Z,4.32
2022-10-15T10:55:05.550Z,5.20
2022-10-15T10:58:14.688Z,3.97
2022-10-15T11:01:16.606Z,3.83
2022-10-15T11:04:29.148Z,3.47
2022-10-15T11:07:39.381Z,3.20
2022-10-15T11:10:51.755Z,3.20
2022-10-15T11:14:08.122Z,4.90
2022-10-15T11:17:47.762Z,3.40
2022-10-15T11:21:07.152Z,3.38
2022-10-15T11:24:48.803Z,2.50
2022-10-15T11:28:00.608Z,3.05
2022-10-15T11:31:05.310Z,2.60
2022-10-15T11:34:27.836Z,3.20
2022-10-15T11:37:41.644Z,3.67
2022-10-15T11:41:08.600Z,2.95
2022-10-15T11:44:32.199Z,2.67
2022-10-15T11:47:38.573Z,3.55
2022-10-15T11:50:58.552Z,3.58
2022-10-15T11:54:22.218Z,5.15
2022-10-15T11:57:26.437Z,3.53
2022-10-15T12:00:36.677Z,2.78
2022-10-15T12:03:55.461Z,3.97
2022-10-15T12:07:01.141Z,2.97
2022-10-15T12:10:12.309Z,3.65
2022-10-15T12:13:34.541Z,4.20
2022-10-15T12:16:42.805Z,4.10
2022-10-15T12:20:00.876Z,3.03
2022-10-15T12:23:03.642Z,4.40
2022-10-15T12:26:24.073Z,3.60
2022-10-15T12:29:27.951Z,2.42
2022-10-15T12:32:37.499Z,2.83
2022-10-15T12:35:40.094Z,3.85
2022-10-15T12:38:56.572Z,3.42
2022-10-15T12:41:59.168Z,4.53
2022-10-15T12:45:06.391Z,4.00
2022-10-15T12:48:08.067Z,5.18
2022-10-15T12:51:21.992Z,3.33
2022-10-15T12:54:36.806Z,4.07
2022-10-15T12:57:38.884Z,3.35
2022-10-15T13:00:42.491Z,3.88
2022-10-15T13:03:50.566Z,3.60
2022-10-15T13:06:52.736Z,2.80
2022-10-15T13:09:54.660Z,4.05
2022-10-15T13:13:13.680Z,5.10
2022-10-15T13:16:15.560Z,5.30
2022-10-15T13:19:22.590Z,3.88
2022-10-15T13:22:30.889Z,2.60
2022-10-15T13:25:32.686Z,2.45
2022-10-15T13:28:38.213Z,4.13
2022-10-15T13:31:41.132Z,2.75
2022-10-15T13:34:43.015Z,4.03
2022-10-15T13:37:46.883Z,2.72
2022-10-15T13:40:51.227Z,3.45
2022-10-15T13:43:58.682Z,3.88
2022-10-15T13:47:00.366Z,2.83
2022-10-15T13:50:36.250Z,2.67
2022-10-15T13:53:41.362Z,3.72
2022-10-15T13:56:50.215Z,1.90
2022-10-15T13:59:54.127Z,3.50
2022-10-15T14:03:15.263Z,4.55
2022-10-15T14:06:17.314Z,3.03
2022-10-15T14:09:20.563Z,3.60
2022-10-15T14:12:23.579Z,2.90
2022-10-15T14:15:47.014Z,3.72
2022-10-15T14:18:55.529Z,4.32
2022-10-15T14:21:59.842Z,4.38
2022-10-15T14:28:20.905Z,5.72
2022-10-15T14:31:38.965Z,3.90
2022-10-15T14:34:42.042Z,4.45
2022-10-15T14:37:43.930Z,2.90
2022-10-15T14:41:25.976Z,3.30
2022-10-15T14:44:45.121Z,3.53
2022-10-15T14:47:50.560Z,4.18
2022-10-15T14:50:53.388Z,4.63
2022-10-15T14:53:55.662Z,5.35
2022-10-15T14:56:57.951Z,5.80
2022-10-15T15:00:00.796Z,4.07
2022-10-15T15:03:05.660Z,4.40
2022-10-15T15:06:08.851Z,3.67
2022-10-15T15:09:10.807Z,4.13
2022-10-15T15:12:21.716Z,4.68
2022-10-15T15:15:27.800Z,5.10
2022-10-15T15:18:29.426Z,4.60
2022-10-15T15:21:31.362Z,4.82
2022-10-15T15:24:33.009Z,4.93
2022-10-15T15:27:37.320Z,4.03
2022-10-15T15:30:41.069Z,3.88
2022-10-15T15:33:43.873Z,3.45
2022-10-15T15:36:46.236Z,5.38
2022-10-15T15:39:49.580Z,4.72
2022-10-15T15:42:51.582Z,5.10
2022-10-15T15:45:53.380Z,4.10
2022-10-15T15:48:57.021Z,4.78
2022-10-15T15:51:58.737Z,5.10
2022-10-15T15:55:00.438Z,5.60
2022-10-15T15:58:02.229Z,4.13
2022-10-15T16:01:04.147Z,5.00
2022-10-15T16:04:05.811Z,3.90
2022-10-15T16:07:10.276Z,5.45
2022-10-15T16:10:15.164Z,5.72
2022-10-15T16:13:16.936Z,5.47
2022-10-15T16:16:18.643Z,4.32
2022-10-15T16:19:20.337Z,4.72
2022-10-15T16:22:22.001Z,4.70
2022-10-15T16:25:26.406Z,3.50
2022-10-15T16:28:30.872Z,4.40
2022-10-15T16:31:36.528Z,4.40
2022-10-15T16:34:39.136Z,3.70
2022-10-15T16:37:41.021Z,3.63
2022-10-15T16:40:46.332Z,5.18
2022-10-15T16:43:48.309Z,4.40
2022-10-15T16:46:50.019Z,4.70
2022-10-15T16:49:51.653Z,4.90
2022-10-15T16:52:53.481Z,8.18
2022-10-15T16:56:01.108Z,7.70
2022-10-15T16:59:02.709Z,4.40
2022-10-15T17:02:05.762Z,4.85
2022-10-15T17:05:08.063Z,5.40
2022-10-15T17:08:14.369Z,3.60
2022-10-15T17:11:22.605Z,4.35
2022-10-15T17:14:24.556Z,4.68
2022-10-15T17:17:26.290Z,4.90
2022-10-15T17:20:27.922Z,5.00
2022-10-15T17:23:30.849Z,4.65
2022-10-15T17:26:38.932Z,4.32
2022-10-15T17:29:40.658Z,3.58
2022-10-15T17:32:42.249Z,3.70
2022-10-15T17:35:44.464Z,4.60
2022-10-15T17:38:46.503Z,5.35
2022-10-15T17:41:49.819Z,3.67
2022-10-15T17:44:51.483Z,4.53
2022-10-15T17:47:53.153Z,4.93
2022-10-15T17:50:55.688Z,4.50
2022-10-15T17:53:58.159Z,4.10
2022-10-15T17:56:59.836Z,5.25
2022-10-15T18:00:01.516Z,4.28
2022-10-15T18:03:03.278Z,3.58
2022-10-15T18:06:10.762Z,4.38
2022-10-15T18:09:12.872Z,4.22
2022-10-15T18:12:14.673Z,4.10
2022-10-15T18:15:16.503Z,4.88
2022-10-15T18:18:18.209Z,4.88
2022-10-15T18:21:21.055Z,4.43
2022-10-15T18:24:23.811Z,4.10
2022-10-15T18:27:25.735Z,3.95
2022-10-15T18:30:27.684Z,4.45
2022-10-15T18:33:29.740Z,4.38
2022-10-15T18:36:32.949Z,4.53
2022-10-15T18:39:34.638Z,3.72
2022-10-15T18:42:36.397Z,3.33
2022-10-15T18:45:39.058Z,3.60
2022-10-15T18:48:40.668Z,4.60
2022-10-15T18:51:43.004Z,4.13
2022-10-15T18:54:44.704Z,4.22
2022-10-15T18:57:46.707Z,3.80
2022-10-15T19:00:48.339Z,4.30
2022-10-15T19:03:52.447Z,3.70
2022-10-15T19:06:54.865Z,3.88
2022-10-15T19:09:56.520Z,3.35
2022-10-15T19:13:01.162Z,3.80
2022-10-15T19:16:06.714Z,3.70
2022-10-15T19:19:09.296Z,4.20
2022-10-15T19:22:11.098Z,4.80
2022-10-15T19:25:13.034Z,5.43
2022-10-15T19:28:24.673Z,4.00
2022-10-15T19:31:35.262Z,4.25
2022-10-15T19:34:37.134Z,4.55
2022-10-15T19:37:38.847Z,3.72
2022-10-15T19:40:43.723Z,3.85
2022-10-15T19:43:48.816Z,4.45
2022-10-15T19:46:51.508Z,3.65
2022-10-15T19:49:55.017Z,5.32
2022-10-15T19:52:56.650Z,4.57
2022-10-15T19:56:01.197Z,5.68
2022-10-15T19:59:05.172Z,5.13
2022-10-15T20:02:06.770Z,4.72
2022-10-15T20:05:11.285Z,3.35
2022-10-15T20:08:13.608Z,3.03
2022-10-15T20:11:15.532Z,2.97
2022-10-15T20:14:17.149Z,4.38
2022-10-15T20:17:18.787Z,3.90
2022-10-15T20:20:20.492Z,4.70
2022-10-15T20:23:23.605Z,4.32
2022-10-15T20:26:25.411Z,4.45
2022-10-15T20:29:27.152Z,3.35
2022-10-15T20:32:36.123Z,3.17
2022-10-15T20:35:39.930Z,2.70
2022-10-15T20:38:42.229Z,4.93
2022-10-15T20:41:43.863Z,2.80
2022-10-15T20:44:45.541Z,3.60
2022-10-15T20:47:51.165Z,2.92
2022-10-15T20:50:54.656Z,5.35
2022-10-15T20:53:58.794Z,3.97
2022-10-15T20:57:00.596Z,3.22
2022-10-15T21:00:02.243Z,3.28
2022-10-15T21:03:04.020Z,2.67
2022-10-15T21:06:05.896Z,4.57
2022-10-15T21:09:07.624Z,2.53
2022-10-15T21:12:10.235Z,6.35
2022-10-15T21:15:11.963Z,3.47
2022-10-15T21:18:15.861Z,3.35
2022-10-15T21:21:19.718Z,2.97
2022-10-15T21:24:28.205Z,3.13
2022-10-15T21:27:29.908Z,5.63
2022-10-15T21:30:31.908Z,2.90
2022-10-15T21:33:36.075Z,4.22
2022-10-15T21:36:37.911Z,4.78
2022-10-15T21:39:39.552Z,2.78
2022-10-15T21:42:41.378Z,3.60
2022-10-15T21:45:43.328Z,5.32
2022-10-15T21:48:45.708Z,4.85
2022-10-15T21:51:47.464Z,2.55
2022-10-15T21:54:51.680Z,3.53
2022-10-15T21:57:53.728Z,4.88
2022-10-15T22:00:55.344Z,4.63
2022-10-15T22:04:02.477Z,6.05
2022-10-15T22:07:06.572Z,4.03
2022-10-15T22:10:08.466Z,3.50
2022-10-15T22:13:10.215Z,6.13
2022-10-15T22:16:12.904Z,4.00
2022-10-15T22:19:16.214Z,3.55
2022-10-15T22:22:17.884Z,5.35
2022-10-15T22:25:19.536Z,5.50
2022-10-15T22:28:21.352Z,6.03
2022-10-15T22:31:26.342Z,3.67
2022-10-15T22:34:28.799Z,4.78
2022-10-15T22:37:30.766Z,4.50
2022-10-15T22:40:32.532Z,5.57
2022-10-15T22:43:34.197Z,3.83
2022-10-15T22:46:38.056Z,5.38
2022-10-15T22:49:39.737Z,3.95
2022-10-15T22:52:41.414Z,6.35
2022-10-15T22:55:43.088Z,4.40
2022-10-15T22:58:46.049Z,4.45
2022-10-15T23:01:47.807Z,4.18
2022-10-15T23:04:49.575Z,3.42
2022-10-15T23:07:51.227Z,3.60
2022-10-15T23:10:53.120Z,5.07
2022-10-15T23:13:58.157Z,3.85
2022-10-15T23:16:59.992Z,2.78
2022-10-15T23:20:01.782Z,5.50
2022-10-15T23:23:04.809Z,3.13
2022-10-15T23:26:06.602Z,3.60
2022-10-15T23:29:13.071Z,3.88
2022-10-15T23:32:14.760Z,4.53
2022-10-15T23:35:16.583Z,4.00
2022-10-15T23:38:18.296Z,3.17
2022-10-15T23:41:20.383Z,3.90
2022-10-15T23:44:25.675Z,3.58
2022-10-15T23:47:27.934Z,4.40
2022-10-15T23:50:36.510Z,4.53
2022-10-15T23:53:38.282Z,2.63
2022-10-15T23:56:40.083Z,2.75
2022-10-15T23:59:41.881Z,5.43
